Архив погоды в Минеральных Водах

Метеограмма Минеральные Воды
Воскресенье, 22 Июля
Время местн. Темп Ветер Видим Явления Облачность нижн/средн/верх Атм. давл. Влжн Точка росы ВНГО R Сост. почвы Tg s
Напр Скр Прв ур.ст ур.м изм
03:00 +20.5° штиль 0 - 10 км - переменная облачность 731 758 +0.5 76% +16.1° - - - - -
00:00 +23.5° З,Ю-З 2 - 10 км - переменная облачность 731 758 +0.5 59% +14.9° - - - - -
Суббота, 21 Июля
Время местн. Темп Ветер Видим Явления Облачность нижн/средн/верх Атм. давл. Влжн Точка росы ВНГО R Сост. почвы Tg s
Напр Скр Прв ур.ст ур.м изм
21:00 +26° штиль 0 - 10 км - переменная облачность 730 757 +0.8 47% +13.8° - - - - -
18:00 +30.2° штиль 0 - 20 км - облачно с прояснениями 730 756 +0.2 33% +12.3° 1.5 км - - - -
15:00 +32.1° Ю,Ю-З 1 - 20 км - переменная облачность 729 755 -0.8 29% +12° 1.5 км - - - -
12:00 +29° Ю-В 1 - 20 км - переменная облачность 730 756 -0.7 38% +13.2° 1.5 км - - - -
09:00 +24.6° З 1 - 20 км - преимущественно облачно 731 758 +0.5 56% +15.3° 1.5 км - - - -
06:00 +18.3° штиль 0 - 20 км - преимущественно облачно 730 758 +0.5 83% +15.4° 1.5 км - Влажная (без луж) - -
03:00 +17.3° З 1 - 10 км - ясно 730 757 +0.5 89% +15.5° более 2.5 км - - - -
00:00 +19.4° З 2 - 10 км - ясно 729 756 +0.1 83% +16.4° более 2.5 км - - - -
Пятница, 20 Июля
Время местн. Темп Ветер Видим Явления Облачность нижн/средн/верх Атм. давл. Влжн Точка росы ВНГО R Сост. почвы Tg s
Напр Скр Прв ур.ст ур.м изм
21:00 +20.8° Ю 1 - 10 км ливневый дождь облачно 729 756 +1.8 88% +18.8° 1.5 км - - - -
18:00 +27° В 1 - 20 км небо без изменений {ливневые осадки} облачно с прояснениями 728 754 +0.1 46% +14.4° 1.5 км - - - -
15:00 +30.4° В,Ю-В 2 - 20 км - преимущественно облачно 728 754 -0.8 34% +12.7° 1.5 км - - - -
12:00 +27.6° В 1 - 20 км - преимущественно облачно 729 755 -0.2 40% +12.8° 1.5 км - - - -
09:00 +24° штиль 0 - 20 км - облачно 729 756 0 59% +15.6° 1.5 км - - - -
06:00 +17.4° Ю,Ю-З 1 - 20 км - облачно с прояснениями 729 756 +0.2 87% +15.2° 1.5 км - Сухая (без трещин) - -
03:00 +17.1° З,С-З 1 - 10 км - ясно 729 756 +0.3 89% +15.3° более 2.5 км - - - -
00:00 +18.3° З 1 - 10 км - ясно 728 756 -0.1 87% +16.1° более 2.5 км - - - -
Четверг, 19 Июля
Время местн. Темп Ветер Видим Явления Облачность нижн/средн/верх Атм. давл. Влжн Точка росы ВНГО R Сост. почвы Tg s
Напр Скр Прв ур.ст ур.м изм
21:00 +20.4° Ю-З 3 - 10 км облака рассеиваются {гроза} ясно 728 755 +0.2 75% +15.9° более 2.5 км - - - -
18:00 +22.1° З 2 - 20 км небо без изменений {гроза} облачно с прояснениями 728 755 +2.9 73% +17° 1.5 км - - - -
15:00 +32.2° В 2 - 20 км - облачно 725 751 -0.4 31% +13.1° 1 км - - - -
12:00 +31.4° Ю-З 1 - 20 км - переменная облачность 726 752 -0.7 32% +12.9° 1 км - - - -
09:00 +27.7° З,С-З 1 - 20 км - ясно 726 753 -0.3 46% +15° более 2.5 км - - - -
06:00 +19° штиль 0 - 20 км - ясно 727 754 +0.2 81% +15.6° более 2.5 км - Сухая (без трещин) - -
03:00 +20.8° С 1 - 10 км - ясно 726 753 -0.3 72% +15.5° более 2.5 км - - - -
00:00 +19.8° штиль 0 - 10 км - ясно 727 754 -0.3 71% +14.5° более 2.5 км - - - -